sensor_id;sensor_type;location;lat;lon;timestamp;pressure;altitude;pressure_sealevel;temperature;humidity
70248;BME280;57641;51.416;5.506;2023-03-04T00:01:51;102736.53;;;11.09;44.92
70248;BME280;57641;51.416;5.506;2023-03-04T00:04:16;102740.91;;;11.10;45.46
70248;BME280;57641;51.416;5.506;2023-03-04T00:06:42;102740.69;;;11.13;45.17
70248;BME280;57641;51.416;5.506;2023-03-04T00:09:07;102741.53;;;11.13;45.58
70248;BME280;57641;51.416;5.506;2023-03-04T00:11:33;102743.47;;;11.11;44.87
70248;BME280;57641;51.416;5.506;2023-03-04T00:13:59;102738.13;;;11.11;45.39
70248;BME280;57641;51.416;5.506;2023-03-04T00:16:24;102736.09;;;11.15;45.58
70248;BME280;57641;51.416;5.506;2023-03-04T00:18:56;102735.00;;;11.17;45.09
70248;BME280;57641;51.416;5.506;2023-03-04T00:21:22;102730.25;;;11.10;45.70
70248;BME280;57641;51.416;5.506;2023-03-04T00:23:47;102731.31;;;11.07;45.52
70248;BME280;57641;51.416;5.506;2023-03-04T00:26:13;102730.56;;;11.05;45.70
70248;BME280;57641;51.416;5.506;2023-03-04T00:28:39;102724.38;;;11.05;46.20
70248;BME280;57641;51.416;5.506;2023-03-04T00:31:06;102727.88;;;11.05;45.66
70248;BME280;57641;51.416;5.506;2023-03-04T00:33:32;102721.25;;;11.11;45.70
70248;BME280;57641;51.416;5.506;2023-03-04T00:35:58;102727.09;;;11.16;45.48
70248;BME280;57641;51.416;5.506;2023-03-04T00:38:24;102728.81;;;11.17;45.16
70248;BME280;57641;51.416;5.506;2023-03-04T00:40:50;102726.72;;;11.09;45.11
70248;BME280;57641;51.416;5.506;2023-03-04T00:43:15;102718.53;;;10.99;45.68
70248;BME280;57641;51.416;5.506;2023-03-04T00:45:41;102726.59;;;11.11;46.02
70248;BME280;57641;51.416;5.506;2023-03-04T00:48:06;102722.09;;;11.11;45.68
70248;BME280;57641;51.416;5.506;2023-03-04T00:50:32;102722.97;;;11.12;45.53
70248;BME280;57641;51.416;5.506;2023-03-04T00:52:57;102725.34;;;11.04;45.76
70248;BME280;57641;51.416;5.506;2023-03-04T00:55:27;102725.97;;;11.07;46.49
70248;BME280;57641;51.416;5.506;2023-03-04T00:57:53;102718.28;;;11.15;46.07
70248;BME280;57641;51.416;5.506;2023-03-04T01:00:19;102724.34;;;11.17;45.53
70248;BME280;57641;51.416;5.506;2023-03-04T01:02:45;102724.84;;;11.22;45.49
70248;BME280;57641;51.416;5.506;2023-03-04T01:05:10;102728.81;;;11.17;45.89
70248;BME280;57641;51.416;5.506;2023-03-04T01:07:36;102723.03;;;11.23;45.57
70248;BME280;57641;51.416;5.506;2023-03-04T01:10:01;102731.47;;;11.17;45.96
70248;BME280;57641;51.416;5.506;2023-03-04T01:12:27;102735.97;;;11.16;45.69
70248;BME280;57641;51.416;5.506;2023-03-04T01:14:53;102736.19;;;11.13;45.93
70248;BME280;57641;51.416;5.506;2023-03-04T01:17:18;102727.59;;;10.97;46.36
70248;BME280;57641;51.416;5.506;2023-03-04T01:19:44;102729.59;;;11.06;46.41
70248;BME280;57641;51.416;5.506;2023-03-04T01:22:10;102731.81;;;11.12;46.56
70248;BME280;57641;51.416;5.506;2023-03-04T01:24:38;102733.53;;;11.13;45.82
70248;BME280;57641;51.416;5.506;2023-03-04T01:27:03;102731.63;;;11.15;46.53
70248;BME280;57641;51.416;5.506;2023-03-04T01:29:29;102732.34;;;11.17;45.90
70248;BME280;57641;51.416;5.506;2023-03-04T01:31:54;102723.38;;;11.18;45.94
70248;BME280;57641;51.416;5.506;2023-03-04T01:34:20;102719.66;;;11.21;45.62
70248;BME280;57641;51.416;5.506;2023-03-04T01:36:45;102724.97;;;11.21;46.15
70248;BME280;57641;51.416;5.506;2023-03-04T01:39:10;102715.28;;;11.07;46.54
70248;BME280;57641;51.416;5.506;2023-03-04T01:41:36;102721.28;;;10.98;46.65
70248;BME280;57641;51.416;5.506;2023-03-04T01:44:02;102715.09;;;10.97;46.17
70248;BME280;57641;51.416;5.506;2023-03-04T01:46:29;102713.38;;;10.96;46.71
70248;BME280;57641;51.416;5.506;2023-03-04T01:48:56;102707.44;;;10.80;46.41
70248;BME280;57641;51.416;5.506;2023-03-04T01:51:22;102700.53;;;10.78;47.05
70248;BME280;57641;51.416;5.506;2023-03-04T01:53:49;102708.72;;;10.75;46.59
70248;BME280;57641;51.416;5.506;2023-03-04T01:56:27;102698.47;;;10.81;47.10
70248;BME280;57641;51.416;5.506;2023-03-04T01:59:13;102698.25;;;10.84;47.32
70248;BME280;57641;51.416;5.506;2023-03-04T02:01:41;102698.38;;;10.83;47.16
70248;BME280;57641;51.416;5.506;2023-03-04T02:04:08;102700.53;;;10.78;47.01
70248;BME280;57641;51.416;5.506;2023-03-04T02:06:36;102690.25;;;10.84;47.02
70248;BME280;57641;51.416;5.506;2023-03-04T02:09:03;102694.28;;;10.90;47.41
70248;BME280;57641;51.416;5.506;2023-03-04T02:11:29;102688.41;;;10.97;46.73
70248;BME280;57641;51.416;5.506;2023-03-04T02:13:54;102685.00;;;10.95;46.92
70248;BME280;57641;51.416;5.506;2023-03-04T02:16:20;102687.13;;;11.03;46.58
70248;BME280;57641;51.416;5.506;2023-03-04T02:18:46;102683.22;;;10.83;46.42
70248;BME280;57641;51.416;5.506;2023-03-04T02:21:30;102685.91;;;10.83;46.95
70248;BME280;57641;51.416;5.506;2023-03-04T02:24:16;102680.47;;;10.72;47.19
70248;BME280;57641;51.416;5.506;2023-03-04T02:26:44;102678.00;;;10.82;47.31
70248;BME280;57641;51.416;5.506;2023-03-04T02:29:13;102681.41;;;10.84;47.47
70248;BME280;57641;51.416;5.506;2023-03-04T02:31:42;102675.63;;;10.90;47.35
70248;BME280;57641;51.416;5.506;2023-03-04T02:34:23;102680.75;;;10.80;47.00
70248;BME280;57641;51.416;5.506;2023-03-04T02:36:52;102681.09;;;10.76;47.80
70248;BME280;57641;51.416;5.506;2023-03-04T02:41:44;102677.06;;;10.70;47.41
70248;BME280;57641;51.416;5.506;2023-03-04T02:44:18;102672.03;;;10.78;47.67
70248;BME280;57641;51.416;5.506;2023-03-04T02:46:44;102671.81;;;10.81;47.57
70248;BME280;57641;51.416;5.506;2023-03-04T02:49:10;102661.66;;;10.86;47.45
70248;BME280;57641;51.416;5.506;2023-03-04T02:51:36;102657.06;;;10.88;47.10
70248;BME280;57641;51.416;5.506;2023-03-04T02:54:02;102656.94;;;10.90;47.07
70248;BME280;57641;51.416;5.506;2023-03-04T02:56:28;102658.69;;;10.78;47.27
70248;BME280;57641;51.416;5.506;2023-03-04T02:58:53;102659.59;;;10.90;47.16
70248;BME280;57641;51.416;5.506;2023-03-04T03:01:19;102663.91;;;10.80;47.27
70248;BME280;57641;51.416;5.506;2023-03-04T03:03:44;102662.41;;;10.76;47.38
70248;BME280;57641;51.416;5.506;2023-03-04T03:06:10;102654.75;;;10.71;47.21
70248;BME280;57641;51.416;5.506;2023-03-04T03:08:35;102660.59;;;10.76;47.24
70248;BME280;57641;51.416;5.506;2023-03-04T03:11:01;102646.75;;;10.58;48.05
70248;BME280;57641;51.416;5.506;2023-03-04T03:13:29;102653.66;;;10.74;47.52
70248;BME280;57641;51.416;5.506;2023-03-04T03:15:58;102644.16;;;10.82;47.62
70248;BME280;57641;51.416;5.506;2023-03-04T03:18:23;102643.22;;;10.83;47.71
70248;BME280;57641;51.416;5.506;2023-03-04T03:20:49;102645.75;;;10.85;47.77
70248;BME280;57641;51.416;5.506;2023-03-04T03:23:14;102649.59;;;10.81;47.84
70248;BME280;57641;51.416;5.506;2023-03-04T03:25:42;102641.06;;;10.88;48.01
70248;BME280;57641;51.416;5.506;2023-03-04T03:28:07;102649.53;;;10.70;47.90
70248;BME280;57641;51.416;5.506;2023-03-04T03:30:33;102648.56;;;10.71;47.47
70248;BME280;57641;51.416;5.506;2023-03-04T03:32:58;102638.19;;;10.79;47.96
70248;BME280;57641;51.416;5.506;2023-03-04T03:35:24;102642.78;;;10.77;48.24
70248;BME280;57641;51.416;5.506;2023-03-04T03:37:49;102640.03;;;10.78;47.62
70248;BME280;57641;51.416;5.506;2023-03-04T03:40:15;102633.38;;;10.84;48.12
70248;BME280;57641;51.416;5.506;2023-03-04T03:42:40;102642.72;;;10.89;47.34
70248;BME280;57641;51.416;5.506;2023-03-04T03:45:06;102635.91;;;10.98;47.62
70248;BME280;57641;51.416;5.506;2023-03-04T03:47:32;102640.91;;;10.90;47.65
70248;BME280;57641;51.416;5.506;2023-03-04T03:49:58;102637.41;;;10.89;48.09
70248;BME280;57641;51.416;5.506;2023-03-04T03:52:23;102631.34;;;10.87;48.11
70248;BME280;57641;51.416;5.506;2023-03-04T03:54:49;102639.44;;;10.86;47.71
70248;BME280;57641;51.416;5.506;2023-03-04T03:57:14;102637.00;;;10.83;47.76
70248;BME280;57641;51.416;5.506;2023-03-04T03:59:43;102636.06;;;10.84;47.80
70248;BME280;57641;51.416;5.506;2023-03-04T04:02:08;102638.94;;;10.81;48.62
70248;BME280;57641;51.416;5.506;2023-03-04T04:04:34;102638.50;;;10.87;48.46
70248;BME280;57641;51.416;5.506;2023-03-04T04:06:59;102633.16;;;10.87;47.84
70248;BME280;57641;51.416;5.506;2023-03-04T04:09:24;102630.91;;;10.81;48.48
70248;BME280;57641;51.416;5.506;2023-03-04T04:11:50;102639.78;;;10.81;48.58
70248;BME280;57641;51.416;5.506;2023-03-04T04:14:15;102635.91;;;10.85;48.13
70248;BME280;57641;51.416;5.506;2023-03-04T04:16:41;102642.22;;;10.84;48.41
70248;BME280;57641;51.416;5.506;2023-03-04T04:19:10;102644.78;;;10.86;48.54
70248;BME280;57641;51.416;5.506;2023-03-04T04:21:38;102647.03;;;10.79;48.18
70248;BME280;57641;51.416;5.506;2023-03-04T04:24:04;102642.34;;;10.83;48.68
70248;BME280;57641;51.416;5.506;2023-03-04T04:26:29;102637.97;;;10.82;48.35
70248;BME280;57641;51.416;5.506;2023-03-04T04:28:55;102640.75;;;10.80;48.58
70248;BME280;57641;51.416;5.506;2023-03-04T04:31:20;102634.22;;;10.84;48.24
70248;BME280;57641;51.416;5.506;2023-03-04T04:33:46;102635.59;;;10.90;48.31
70248;BME280;57641;51.416;5.506;2023-03-04T04:36:13;102642.72;;;10.89;48.16
70248;BME280;57641;51.416;5.506;2023-03-04T04:38:39;102638.50;;;10.87;47.77
70248;BME280;57641;51.416;5.506;2023-03-04T04:41:05;102648.94;;;10.90;47.77
70248;BME280;57641;51.416;5.506;2023-03-04T04:43:37;102647.34;;;10.87;48.08
70248;BME280;57641;51.416;5.506;2023-03-04T04:46:03;102651.50;;;10.79;48.04
70248;BME280;57641;51.416;5.506;2023-03-04T04:48:29;102649.59;;;10.81;47.86
70248;BME280;57641;51.416;5.506;2023-03-04T04:50:55;102648.22;;;10.75;47.56
70248;BME280;57641;51.416;5.506;2023-03-04T04:53:20;102649.19;;;10.74;47.58
70248;BME280;57641;51.416;5.506;2023-03-04T04:55:46;102655.94;;;10.67;48.32
70248;BME280;57641;51.416;5.506;2023-03-04T04:58:11;102655.28;;;10.76;48.03
70248;BME280;57641;51.416;5.506;2023-03-04T05:00:37;102653.47;;;10.77;48.19
70248;BME280;57641;51.416;5.506;2023-03-04T05:03:03;102652.28;;;10.81;48.15
70248;BME280;57641;51.416;5.506;2023-03-04T05:05:28;102654.84;;;10.82;47.98
70248;BME280;57641;51.416;5.506;2023-03-04T05:07:54;102650.34;;;10.83;47.38
70248;BME280;57641;51.416;5.506;2023-03-04T05:10:19;102648.31;;;10.74;47.54
70248;BME280;57641;51.416;5.506;2023-03-04T05:12:45;102645.56;;;10.75;47.25
70248;BME280;57641;51.416;5.506;2023-03-04T05:15:11;102655.28;;;10.76;47.48
70248;BME280;57641;51.416;5.506;2023-03-04T05:17:36;102648.22;;;10.75;47.22
70248;BME280;57641;51.416;5.506;2023-03-04T05:20:02;102653.22;;;10.80;47.01
70248;BME280;57641;51.416;5.506;2023-03-04T05:22:28;102644.25;;;10.81;47.13
70248;BME280;57641;51.416;5.506;2023-03-04T05:24:53;102647.78;;;10.81;47.69
70248;BME280;57641;51.416;5.506;2023-03-04T05:27:19;102645.47;;;10.64;47.68
70248;BME280;57641;51.416;5.506;2023-03-04T05:29:45;102646.94;;;10.68;47.95
70248;BME280;57641;51.416;5.506;2023-03-04T05:32:11;102650.28;;;10.72;47.45
70248;BME280;57641;51.416;5.506;2023-03-04T05:34:37;102645.56;;;10.75;47.68
70248;BME280;57641;51.416;5.506;2023-03-04T05:37:02;102640.84;;;10.79;47.75
70248;BME280;57641;51.416;5.506;2023-03-04T05:39:28;102647.88;;;10.80;47.27
70248;BME280;57641;51.416;5.506;2023-03-04T05:41:53;102650.88;;;10.88;46.84
70248;BME280;57641;51.416;5.506;2023-03-04T05:44:18;102652.78;;;10.86;47.20
70248;BME280;57641;51.416;5.506;2023-03-04T05:46:44;102650.75;;;10.89;47.15
70248;BME280;57641;51.416;5.506;2023-03-04T05:49:09;102658.53;;;10.92;47.04
70248;BME280;57641;51.416;5.506;2023-03-04T05:51:35;102659.94;;;10.85;47.20
70248;BME280;57641;51.416;5.506;2023-03-04T05:54:00;102651.97;;;10.73;46.99
70248;BME280;57641;51.416;5.506;2023-03-04T05:56:25;102651.66;;;10.77;47.13
70248;BME280;57641;51.416;5.506;2023-03-04T05:58:51;102656.53;;;10.83;47.60
70248;BME280;57641;51.416;5.506;2023-03-04T06:01:16;102660.78;;;10.86;47.23
70248;BME280;57641;51.416;5.506;2023-03-04T06:03:42;102654.16;;;10.91;47.38
70248;BME280;57641;51.416;5.506;2023-03-04T06:06:08;102664.72;;;10.93;47.05
70248;BME280;57641;51.416;5.506;2023-03-04T06:08:34;102661.97;;;10.82;46.69
70248;BME280;57641;51.416;5.506;2023-03-04T06:10:59;102652.78;;;10.86;47.31
70248;BME280;57641;51.416;5.506;2023-03-04T06:13:25;102656.31;;;10.86;47.76
70248;BME280;57641;51.416;5.506;2023-03-04T06:15:55;102658.75;;;10.89;47.57
70248;BME280;57641;51.416;5.506;2023-03-04T06:18:22;102657.78;;;10.90;47.70
70248;BME280;57641;51.416;5.506;2023-03-04T06:20:48;102665.69;;;10.92;46.90
70248;BME280;57641;51.416;5.506;2023-03-04T06:23:16;102664.59;;;10.94;46.99
70248;BME280;57641;51.416;5.506;2023-03-04T06:25:42;102671.88;;;10.92;46.91
70248;BME280;57641;51.416;5.506;2023-03-04T06:28:08;102668.91;;;10.84;47.29
70248;BME280;57641;51.416;5.506;2023-03-04T06:30:33;102669.03;;;10.83;47.41
70248;BME280;57641;51.416;5.506;2023-03-04T06:32:59;102673.50;;;10.82;48.05
70248;BME280;57641;51.416;5.506;2023-03-04T06:35:24;102682.91;;;10.75;49.08
70248;BME280;57641;51.416;5.506;2023-03-04T06:37:49;102680.56;;;10.71;49.37
70248;BME280;57641;51.416;5.506;2023-03-04T06:40:15;102686.56;;;10.62;49.81
70248;BME280;57641;51.416;5.506;2023-03-04T06:42:41;102680.47;;;10.59;49.44
70248;BME280;57641;51.416;5.506;2023-03-04T06:45:07;102678.34;;;10.65;49.63
70248;BME280;57641;51.416;5.506;2023-03-04T06:47:33;102683.16;;;10.72;50.20
70248;BME280;57641;51.416;5.506;2023-03-04T06:49:59;102682.72;;;10.78;50.00
70248;BME280;57641;51.416;5.506;2023-03-04T06:52:27;102681.63;;;10.81;49.38
70248;BME280;57641;51.416;5.506;2023-03-04T06:54:53;102685.13;;;10.81;49.47
70248;BME280;57641;51.416;5.506;2023-03-04T06:57:18;102682.72;;;10.78;50.03
70248;BME280;57641;51.416;5.506;2023-03-04T06:59:43;102685.25;;;10.80;49.39
70248;BME280;57641;51.416;5.506;2023-03-04T07:02:10;102696.88;;;10.79;49.96
70248;BME280;57641;51.416;5.506;2023-03-04T07:04:37;102697.88;;;10.78;49.77
70248;BME280;57641;51.416;5.506;2023-03-04T07:07:03;102692.09;;;10.71;50.18
70248;BME280;57641;51.416;5.506;2023-03-04T07:09:29;102692.97;;;10.59;51.00
70248;BME280;57641;51.416;5.506;2023-03-04T07:11:54;102692.75;;;10.62;50.92
70248;BME280;57641;51.416;5.506;2023-03-04T07:14:20;102692.53;;;10.65;51.16
70248;BME280;57641;51.416;5.506;2023-03-04T07:16:45;102700.09;;;10.71;50.39
70248;BME280;57641;51.416;5.506;2023-03-04T07:19:11;102690.72;;;10.66;51.60
70248;BME280;57641;51.416;5.506;2023-03-04T07:21:36;102703.34;;;10.51;51.45
70248;BME280;57641;51.416;5.506;2023-03-04T07:24:02;102710.56;;;10.62;51.70
70248;BME280;57641;51.416;5.506;2023-03-04T07:26:28;102702.16;;;10.55;51.61
70248;BME280;57641;51.416;5.506;2023-03-04T07:28:53;102700.00;;;10.60;51.87
70248;BME280;57641;51.416;5.506;2023-03-04T07:33:55;102710.16;;;10.55;52.00
70248;BME280;57641;51.416;5.506;2023-03-04T07:36:21;102705.78;;;10.41;51.99
70248;BME280;57641;51.416;5.506;2023-03-04T07:38:48;102708.34;;;10.43;53.09
70248;BME280;57641;51.416;5.506;2023-03-04T07:41:16;102715.06;;;10.48;52.37
70248;BME280;57641;51.416;5.506;2023-03-04T07:43:43;102710.81;;;10.46;53.13
70248;BME280;57641;51.416;5.506;2023-03-04T07:46:09;102717.91;;;10.58;53.39
70248;BME280;57641;51.416;5.506;2023-03-04T07:48:36;102717.50;;;10.64;52.77
70248;BME280;57641;51.416;5.506;2023-03-04T07:51:07;102721.03;;;10.65;52.31
70248;BME280;57641;51.416;5.506;2023-03-04T07:53:34;102719.63;;;10.72;52.29
70248;BME280;57641;51.416;5.506;2023-03-04T07:56:00;102723.34;;;10.69;52.44
70248;BME280;57641;51.416;5.506;2023-03-04T07:58:25;102729.22;;;10.74;52.20
70248;BME280;57641;51.416;5.506;2023-03-04T08:00:51;102719.31;;;10.64;51.62
70248;BME280;57641;51.416;5.506;2023-03-04T08:03:16;102725.59;;;10.75;51.95
70248;BME280;57641;51.416;5.506;2023-03-04T08:05:42;102726.03;;;10.69;51.95
70248;BME280;57641;51.416;5.506;2023-03-04T08:08:07;102731.59;;;10.66;52.00
70248;BME280;57641;51.416;5.506;2023-03-04T08:10:33;102733.19;;;10.56;52.91
70248;BME280;57641;51.416;5.506;2023-03-04T08:12:58;102732.34;;;10.55;52.02
70248;BME280;57641;51.416;5.506;2023-03-04T08:15:24;102733.41;;;10.66;52.13
70248;BME280;57641;51.416;5.506;2023-03-04T08:17:52;102741.59;;;10.75;52.59
70248;BME280;57641;51.416;5.506;2023-03-04T08:20:17;102736.91;;;10.66;52.08
70248;BME280;57641;51.416;5.506;2023-03-04T08:22:43;102734.78;;;10.71;52.51
70248;BME280;57641;51.416;5.506;2023-03-04T08:25:09;102733.16;;;10.81;52.60
70248;BME280;57641;51.416;5.506;2023-03-04T08:27:35;102737.88;;;10.78;52.12
70248;BME280;57641;51.416;5.506;2023-03-04T08:30:03;102742.69;;;10.73;52.21
70248;BME280;57641;51.416;5.506;2023-03-04T08:32:29;102739.56;;;10.79;52.42
70248;BME280;57641;51.416;5.506;2023-03-04T08:34:54;102742.44;;;10.63;52.43
70248;BME280;57641;51.416;5.506;2023-03-04T08:37:21;102735.53;;;10.73;53.49
70248;BME280;57641;51.416;5.506;2023-03-04T08:39:47;102733.28;;;10.80;52.30
70248;BME280;57641;51.416;5.506;2023-03-04T08:42:12;102739.88;;;10.87;52.93
70248;BME280;57641;51.416;5.506;2023-03-04T08:44:38;102748.41;;;10.79;52.52
70248;BME280;57641;51.416;5.506;2023-03-04T08:47:03;102742.47;;;10.76;53.33
70248;BME280;57641;51.416;5.506;2023-03-04T08:49:29;102736.88;;;10.91;52.41
70248;BME280;57641;51.416;5.506;2023-03-04T08:51:54;102734.63;;;10.98;52.42
70248;BME280;57641;51.416;5.506;2023-03-04T08:54:20;102742.03;;;10.82;52.15
70248;BME280;57641;51.416;5.506;2023-03-04T08:56:45;102741.59;;;10.88;52.47
70248;BME280;57641;51.416;5.506;2023-03-04T08:59:11;102730.06;;;10.87;52.91
70248;BME280;57641;51.416;5.506;2023-03-04T09:01:36;102729.84;;;10.90;51.37
70248;BME280;57641;51.416;5.506;2023-03-04T09:04:02;102739.97;;;10.98;53.09
70248;BME280;57641;51.416;5.506;2023-03-04T09:06:28;102732.91;;;11.10;52.15
70248;BME280;57641;51.416;5.506;2023-03-04T09:08:53;102735.00;;;11.17;50.99
70248;BME280;57641;51.416;5.506;2023-03-04T09:11:19;102729.22;;;11.23;51.86
70248;BME280;57641;51.416;5.506;2023-03-04T09:13:44;102727.19;;;11.27;51.64
70248;BME280;57641;51.416;5.506;2023-03-04T09:16:12;102725.38;;;11.27;50.86
70248;BME280;57641;51.416;5.506;2023-03-04T09:18:38;102729.81;;;11.39;50.62
70248;BME280;57641;51.416;5.506;2023-03-04T09:21:05;102718.69;;;11.46;51.00
70248;BME280;57641;51.416;5.506;2023-03-04T09:23:31;102725.44;;;11.38;51.31
70248;BME280;57641;51.416;5.506;2023-03-04T09:25:56;102720.66;;;11.55;50.52
70248;BME280;57641;51.416;5.506;2023-03-04T09:28:22;102719.91;;;11.53;50.43
70248;BME280;57641;51.416;5.506;2023-03-04T09:30:48;102717.53;;;11.84;49.82
70248;BME280;57641;51.416;5.506;2023-03-04T09:33:13;102714.38;;;11.79;49.77
70248;BME280;57641;51.416;5.506;2023-03-04T09:35:39;102717.22;;;11.89;49.68
70248;BME280;57641;51.416;5.506;2023-03-04T09:38:05;102723.13;;;11.81;48.78
70248;BME280;57641;51.416;5.506;2023-03-04T09:40:43;102712.44;;;11.81;48.87
70248;BME280;57641;51.416;5.506;2023-03-04T09:43:23;102713.53;;;11.79;49.78
70248;BME280;57641;51.416;5.506;2023-03-04T09:45:59;102712.53;;;11.80;49.50
70248;BME280;57641;51.416;5.506;2023-03-04T09:48:28;102711.88;;;11.89;49.43
70248;BME280;57641;51.416;5.506;2023-03-04T09:51:00;102707.63;;;11.98;49.36
70248;BME280;57641;51.416;5.506;2023-03-04T09:54:36;102712.72;;;11.90;49.22
70248;BME280;57641;51.416;5.506;2023-03-04T09:56:34;102705.84;;;11.74;49.75
70248;BME280;57641;51.416;5.506;2023-03-04T09:59:24;102713.75;;;11.52;50.07
70248;BME280;57641;51.416;5.506;2023-03-04T10:01:53;102702.38;;;11.61;50.55
70248;BME280;57641;51.416;5.506;2023-03-04T10:04:47;102712.44;;;11.81;49.48
70248;BME280;57641;51.416;5.506;2023-03-04T10:07:18;102706.34;;;11.79;49.55
70248;BME280;57641;51.416;5.506;2023-03-04T10:09:56;102707.19;;;12.04;49.03
70248;BME280;57641;51.416;5.506;2023-03-04T10:12:27;102698.25;;;11.92;48.59
70248;BME280;57641;51.416;5.506;2023-03-04T10:15:02;102700.47;;;11.98;49.09
70248;BME280;57641;51.416;5.506;2023-03-04T10:17:35;102701.19;;;11.89;49.32
70248;BME280;57641;51.416;5.506;2023-03-04T10:23:18;102700.63;;;12.08;49.22
70248;BME280;57641;51.416;5.506;2023-03-04T10:25:45;102697.94;;;12.08;49.57
70248;BME280;57641;51.416;5.506;2023-03-04T10:28:17;102696.47;;;12.04;49.82
70248;BME280;57641;51.416;5.506;2023-03-04T10:33:39;102699.50;;;11.99;48.90
70248;BME280;57641;51.416;5.506;2023-03-04T10:41:43;102697.81;;;12.09;50.22
70248;BME280;57641;51.416;5.506;2023-03-04T10:46:45;102689.34;;;12.38;49.33
70248;BME280;57641;51.416;5.506;2023-03-04T10:49:13;102693.72;;;12.39;48.90
70248;BME280;57641;51.416;5.506;2023-03-04T10:54:44;102677.81;;;12.37;48.59
70248;BME280;57641;51.416;5.506;2023-03-04T10:57:23;102682.56;;;12.56;48.65
70248;BME280;57641;51.416;5.506;2023-03-04T10:59:59;102674.66;;;12.43;48.49
70248;BME280;57641;51.416;5.506;2023-03-04T11:02:28;102683.16;;;12.48;47.99
70248;BME280;57641;51.416;5.506;2023-03-04T11:07:44;102673.69;;;12.44;48.20
70248;BME280;57641;51.416;5.506;2023-03-04T11:12:51;102675.47;;;12.33;48.11
70248;BME280;57641;51.416;5.506;2023-03-04T11:15:22;102682.19;;;12.38;47.95
70248;BME280;57641;51.416;5.506;2023-03-04T11:17:55;102673.94;;;12.41;48.47
70248;BME280;57641;51.416;5.506;2023-03-04T11:23:02;102662.00;;;12.56;48.11
70248;BME280;57641;51.416;5.506;2023-03-04T11:25:34;102656.66;;;12.56;47.82
70248;BME280;57641;51.416;5.506;2023-03-04T11:28:19;102667.22;;;12.69;47.53
70248;BME280;57641;51.416;5.506;2023-03-04T11:30:51;102671.88;;;12.56;48.15
70248;BME280;57641;51.416;5.506;2023-03-04T11:33:27;102661.16;;;12.45;48.47
70248;BME280;57641;51.416;5.506;2023-03-04T11:38:58;102656.06;;;12.31;49.43
70248;BME280;57641;51.416;5.506;2023-03-04T11:41:31;102653.13;;;12.45;49.12
70248;BME280;57641;51.416;5.506;2023-03-04T11:43:58;102655.06;;;12.43;48.43
70248;BME280;57641;51.416;5.506;2023-03-04T11:46:53;102640.84;;;12.31;48.41
70248;BME280;57641;51.416;5.506;2023-03-04T11:50:12;102641.94;;;12.40;48.69
70248;BME280;57641;51.416;5.506;2023-03-04T11:55:33;102631.63;;;12.35;49.16
70248;BME280;57641;51.416;5.506;2023-03-04T12:19:47;102613.00;;;12.11;52.25
70248;BME280;57641;51.416;5.506;2023-03-04T12:22:44;102599.72;;;11.88;53.21
70248;BME280;57641;51.416;5.506;2023-03-04T12:25:36;102580.72;;;11.68;54.15
70248;BME280;57641;51.416;5.506;2023-03-04T12:36:48;102579.94;;;12.23;52.88
70248;BME280;57641;51.416;5.506;2023-03-04T12:39:31;102576.66;;;12.31;52.82
70248;BME280;57641;51.416;5.506;2023-03-04T12:42:19;102578.59;;;12.40;52.29
70248;BME280;57641;51.416;5.506;2023-03-04T12:50:39;102565.44;;;12.48;52.31
70248;BME280;57641;51.416;5.506;2023-03-04T12:53:11;102560.63;;;12.31;53.03
70248;BME280;57641;51.416;5.506;2023-03-04T12:55:41;102563.88;;;12.57;52.23
70248;BME280;57641;51.416;5.506;2023-03-04T12:58:29;102562.63;;;12.72;52.49
70248;BME280;57641;51.416;5.506;2023-03-04T13:01:10;102555.47;;;12.50;52.52
70248;BME280;57641;51.416;5.506;2023-03-04T13:06:33;102541.31;;;12.05;52.71
70248;BME280;57641;51.416;5.506;2023-03-04T13:11:53;102531.66;;;12.47;51.87
70248;BME280;57641;51.416;5.506;2023-03-04T13:17:00;102533.34;;;12.48;52.55
70248;BME280;57641;51.416;5.506;2023-03-04T13:19:54;102533.69;;;12.66;51.52
70248;BME280;57641;51.416;5.506;2023-03-04T13:43:39;102529.03;;;12.25;54.21
70248;BME280;57641;51.416;5.506;2023-03-04T13:57:36;102520.16;;;12.02;58.71
70248;BME280;57641;51.416;5.506;2023-03-04T14:02:12;102512.72;;;12.06;58.41
70248;BME280;57641;51.416;5.506;2023-03-04T14:04:44;102511.91;;;12.05;58.56
70248;BME280;57641;51.416;5.506;2023-03-04T14:13:05;102512.97;;;12.14;58.90
70248;BME280;57641;51.416;5.506;2023-03-04T14:15:31;102512.25;;;12.12;59.41
70248;BME280;57641;51.416;5.506;2023-03-04T14:18:01;102508.97;;;12.19;58.82
70248;BME280;57641;51.416;5.506;2023-03-04T14:20:33;102506.50;;;12.27;58.69
70248;BME280;57641;51.416;5.506;2023-03-04T14:23:01;102507.00;;;12.33;57.74
70248;BME280;57641;51.416;5.506;2023-03-04T14:25:34;102502.38;;;12.35;56.86
70248;BME280;57641;51.416;5.506;2023-03-04T14:28:10;102503.47;;;12.32;56.75
70248;BME280;57641;51.416;5.506;2023-03-04T14:30:40;102494.47;;;12.33;56.75
70248;BME280;57641;51.416;5.506;2023-03-04T14:33:07;102494.22;;;12.36;56.65
70248;BME280;57641;51.416;5.506;2023-03-04T14:35:35;102497.03;;;12.35;56.52
70248;BME280;57641;51.416;5.506;2023-03-04T14:38:36;102493.63;;;12.33;56.83
70248;BME280;57641;51.416;5.506;2023-03-04T14:41:30;102489.13;;;12.33;57.77
70248;BME280;57641;51.416;5.506;2023-03-04T14:44:02;102487.19;;;12.35;57.53
70248;BME280;57641;51.416;5.506;2023-03-04T14:46:39;102475.41;;;12.26;57.65
70248;BME280;57641;51.416;5.506;2023-03-04T14:49:10;102477.53;;;12.44;56.95
70248;BME280;57641;51.416;5.506;2023-03-04T14:51:43;102476.84;;;12.42;57.59
70248;BME280;57641;51.416;5.506;2023-03-04T14:54:40;102469.56;;;12.21;58.27
70248;BME280;57641;51.416;5.506;2023-03-04T14:57:25;102464.66;;;12.38;57.45
70248;BME280;57641;51.416;5.506;2023-03-04T14:59:54;102456.88;;;12.46;57.05